sensor_id;sensor_type;location;lat;lon;timestamp;pressure;altitude;pressure_sealevel;temperature;humidity
79236;BME280;69062;47.460;18.812;2023-04-24T00:00:13;99454.19;;;15.88;43.55
79236;BME280;69062;47.460;18.812;2023-04-24T00:01:16;99447.41;;;15.84;43.40
79236;BME280;69062;47.460;18.812;2023-04-24T00:02:18;99440.88;;;15.88;43.80
79236;BME280;69062;47.460;18.812;2023-04-24T00:03:20;99445.72;;;15.83;43.70
79236;BME280;69062;47.460;18.812;2023-04-24T00:04:22;99445.72;;;15.83;43.63
79236;BME280;69062;47.460;18.812;2023-04-24T00:05:27;99442.06;;;15.84;43.39
79236;BME280;69062;47.460;18.812;2023-04-24T00:06:28;99439.53;;;15.82;43.70
79236;BME280;69062;47.460;18.812;2023-04-24T00:07:34;99442.06;;;15.84;44.35
79236;BME280;69062;47.460;18.812;2023-04-24T00:08:36;99434.22;;;15.82;44.61
79236;BME280;69062;47.460;18.812;2023-04-24T00:09:37;99436.75;;;15.84;43.79
79236;BME280;69062;47.460;18.812;2023-04-24T00:10:38;99435.06;;;15.83;44.40
79236;BME280;69062;47.460;18.812;2023-04-24T00:11:40;99436.19;;;15.80;44.25
79236;BME280;69062;47.460;18.812;2023-04-24T00:12:42;99441.09;;;15.85;44.01
79236;BME280;69062;47.460;18.812;2023-04-24T00:13:43;99440.81;;;15.67;44.42
79236;BME280;69062;47.460;18.812;2023-04-24T00:14:45;99441.66;;;15.67;44.22
79236;BME280;69062;47.460;18.812;2023-04-24T00:15:46;99454.00;;;15.57;44.61
79236;BME280;69062;47.460;18.812;2023-04-24T00:16:48;99449.63;;;15.56;44.92
79236;BME280;69062;47.460;18.812;2023-04-24T00:17:49;99442.03;;;15.52;45.66
79236;BME280;69062;47.460;18.812;2023-04-24T00:18:51;99436.09;;;15.48;45.39
79236;BME280;69062;47.460;18.812;2023-04-24T00:19:57;99433.22;;;15.40;45.62
79236;BME280;69062;47.460;18.812;2023-04-24T00:21:02;99435.75;;;15.41;45.16
79236;BME280;69062;47.460;18.812;2023-04-24T00:22:04;99435.31;;;15.36;46.10
79236;BME280;69062;47.460;18.812;2023-04-24T00:23:05;99431.81;;;15.36;45.90
79236;BME280;69062;47.460;18.812;2023-04-24T00:24:07;99431.31;;;15.31;45.80
79236;BME280;69062;47.460;18.812;2023-04-24T00:25:10;99426.75;;;15.22;46.15
79236;BME280;69062;47.460;18.812;2023-04-24T00:26:11;99435.22;;;15.15;46.56
79236;BME280;69062;47.460;18.812;2023-04-24T00:27:13;99422.97;;;15.13;46.35
79236;BME280;69062;47.460;18.812;2023-04-24T00:28:14;99431.94;;;15.12;46.30
79236;BME280;69062;47.460;18.812;2023-04-24T00:29:15;99422.88;;;15.03;46.70
79236;BME280;69062;47.460;18.812;2023-04-24T00:30:17;99420.22;;;15.03;46.66
79236;BME280;69062;47.460;18.812;2023-04-24T00:31:18;99420.34;;;15.02;46.45
79236;BME280;69062;47.460;18.812;2023-04-24T00:32:20;99423.16;;;15.00;46.54
79236;BME280;69062;47.460;18.812;2023-04-24T00:33:23;99418.78;;;14.99;46.25
79236;BME280;69062;47.460;18.812;2023-04-24T00:34:24;99423.25;;;14.99;46.54
79236;BME280;69062;47.460;18.812;2023-04-24T00:35:26;99420.84;;;15.07;47.01
79236;BME280;69062;47.460;18.812;2023-04-24T00:36:28;99421.91;;;15.04;46.63
79236;BME280;69062;47.460;18.812;2023-04-24T00:37:29;99412.25;;;15.03;46.92
79236;BME280;69062;47.460;18.812;2023-04-24T00:38:31;99412.97;;;15.05;46.61
79236;BME280;69062;47.460;18.812;2023-04-24T00:39:33;99416.72;;;15.03;46.74
79236;BME280;69062;47.460;18.812;2023-04-24T00:40:34;99418.19;;;15.07;46.73
79236;BME280;69062;47.460;18.812;2023-04-24T00:41:35;99414.78;;;15.05;46.64
79236;BME280;69062;47.460;18.812;2023-04-24T00:42:37;99420.59;;;15.10;46.48
79236;BME280;69062;47.460;18.812;2023-04-24T00:43:40;99418.63;;;15.12;46.92
79236;BME280;69062;47.460;18.812;2023-04-24T00:44:41;99417.69;;;15.02;47.41
79236;BME280;69062;47.460;18.812;2023-04-24T00:45:43;99417.94;;;15.10;47.20
79236;BME280;69062;47.460;18.812;2023-04-24T00:46:45;99412.75;;;15.08;47.49
79236;BME280;69062;47.460;18.812;2023-04-24T00:47:48;99416.72;;;15.14;47.32
79236;BME280;69062;47.460;18.812;2023-04-24T00:48:50;99415.41;;;15.08;47.43
79236;BME280;69062;47.460;18.812;2023-04-24T00:49:52;99416.72;;;15.03;47.50
79236;BME280;69062;47.460;18.812;2023-04-24T00:50:54;99411.66;;;15.00;47.26
79236;BME280;69062;47.460;18.812;2023-04-24T00:51:55;99408.75;;;14.92;47.95
79236;BME280;69062;47.460;18.812;2023-04-24T00:52:58;99411.88;;;14.97;47.45
79236;BME280;69062;47.460;18.812;2023-04-24T00:53:59;99416.25;;;14.98;48.19
79236;BME280;69062;47.460;18.812;2023-04-24T00:55:01;99416.50;;;14.95;47.87
79236;BME280;69062;47.460;18.812;2023-04-24T00:56:03;99413.72;;;14.96;48.56
79236;BME280;69062;47.460;18.812;2023-04-24T00:57:05;99407.81;;;14.93;48.86
79236;BME280;69062;47.460;18.812;2023-04-24T00:58:07;99405.38;;;14.89;48.28
79236;BME280;69062;47.460;18.812;2023-04-24T00:59:15;99409.97;;;14.87;48.54
79236;BME280;69062;47.460;18.812;2023-04-24T01:00:17;99408.28;;;14.86;48.91
79236;BME280;69062;47.460;18.812;2023-04-24T01:01:22;99404.66;;;14.87;49.18
79236;BME280;69062;47.460;18.812;2023-04-24T01:02:23;99406.09;;;14.92;48.69
79236;BME280;69062;47.460;18.812;2023-04-24T01:03:29;99401.03;;;14.88;48.91
79236;BME280;69062;47.460;18.812;2023-04-24T01:04:31;99406.09;;;14.92;49.15
79236;BME280;69062;47.460;18.812;2023-04-24T01:05:33;99409.72;;;14.90;49.23
79236;BME280;69062;47.460;18.812;2023-04-24T01:06:38;99399.34;;;14.87;49.27
79236;BME280;69062;47.460;18.812;2023-04-24T01:07:43;99395.25;;;14.72;50.66
79236;BME280;69062;47.460;18.812;2023-04-24T01:08:47;99392.94;;;14.79;50.60
79236;BME280;69062;47.460;18.812;2023-04-24T01:09:49;99391.34;;;14.76;49.75
79236;BME280;69062;47.460;18.812;2023-04-24T01:10:53;99392.72;;;14.71;51.46
79236;BME280;69062;47.460;18.812;2023-04-24T01:11:55;99389.44;;;14.67;50.63
79236;BME280;69062;47.460;18.812;2023-04-24T01:12:58;99395.94;;;14.74;51.12
79236;BME280;69062;47.460;18.812;2023-04-24T01:13:59;99389.66;;;14.75;50.80
79236;BME280;69062;47.460;18.812;2023-04-24T01:15:01;99385.19;;;14.76;50.58
79236;BME280;69062;47.460;18.812;2023-04-24T01:16:03;99380.63;;;14.78;51.37
79236;BME280;69062;47.460;18.812;2023-04-24T01:17:04;99382.66;;;14.85;50.54
79236;BME280;69062;47.460;18.812;2023-04-24T01:18:05;99385.56;;;14.82;51.57
79236;BME280;69062;47.460;18.812;2023-04-24T01:19:07;99371.28;;;14.83;51.60
79236;BME280;69062;47.460;18.812;2023-04-24T01:20:11;99373.09;;;14.83;51.05
79236;BME280;69062;47.460;18.812;2023-04-24T01:21:14;99370.84;;;14.78;51.49
79236;BME280;69062;47.460;18.812;2023-04-24T01:22:17;99375.31;;;14.78;51.27
79236;BME280;69062;47.460;18.812;2023-04-24T01:23:19;99372.97;;;14.84;51.91
79236;BME280;69062;47.460;18.812;2023-04-24T01:24:20;99371.53;;;14.80;51.58
79236;BME280;69062;47.460;18.812;2023-04-24T01:25:22;99369.63;;;14.71;51.91
79236;BME280;69062;47.460;18.812;2023-04-24T01:26:24;99363.56;;;14.69;52.45
79236;BME280;69062;47.460;18.812;2023-04-24T01:27:27;99374.06;;;14.82;52.11
79236;BME280;69062;47.460;18.812;2023-04-24T01:28:28;99368.03;;;14.80;52.72
79236;BME280;69062;47.460;18.812;2023-04-24T01:29:30;99371.78;;;14.77;51.81
79236;BME280;69062;47.460;18.812;2023-04-24T01:30:33;99370.31;;;14.84;52.34
79236;BME280;69062;47.460;18.812;2023-04-24T01:31:34;99374.44;;;14.88;52.70
79236;BME280;69062;47.460;18.812;2023-04-24T01:32:36;99374.91;;;14.94;52.69
79236;BME280;69062;47.460;18.812;2023-04-24T01:33:38;99371.91;;;14.87;51.30
79236;BME280;69062;47.460;18.812;2023-04-24T01:34:40;99358.75;;;14.85;51.63
79236;BME280;69062;47.460;18.812;2023-04-24T01:35:42;99368.28;;;14.88;51.77
79236;BME280;69062;47.460;18.812;2023-04-24T01:36:45;99364.50;;;14.90;52.66
79236;BME280;69062;47.460;18.812;2023-04-24T01:37:47;99362.09;;;14.99;52.57
79236;BME280;69062;47.460;18.812;2023-04-24T01:38:49;99357.63;;;14.88;52.42
79236;BME280;69062;47.460;18.812;2023-04-24T01:39:50;99356.53;;;14.90;51.98
79236;BME280;69062;47.460;18.812;2023-04-24T01:40:53;99359.94;;;14.93;52.08
79236;BME280;69062;47.460;18.812;2023-04-24T01:41:55;99354.38;;;14.84;52.93
79236;BME280;69062;47.460;18.812;2023-04-24T01:42:58;99348.34;;;14.82;52.44
79236;BME280;69062;47.460;18.812;2023-04-24T01:43:59;99348.81;;;14.87;52.97
79236;BME280;69062;47.460;18.812;2023-04-24T01:45:03;99344.84;;;14.93;52.96
79236;BME280;69062;47.460;18.812;2023-04-24T01:46:06;99346.66;;;14.93;52.33
79236;BME280;69062;47.460;18.812;2023-04-24T01:47:10;99343.84;;;14.94;53.24
79236;BME280;69062;47.460;18.812;2023-04-24T01:48:13;99347.50;;;14.93;52.94
79236;BME280;69062;47.460;18.812;2023-04-24T01:49:14;99349.75;;;14.98;52.64
79236;BME280;69062;47.460;18.812;2023-04-24T01:50:17;99348.91;;;14.97;53.08
79236;BME280;69062;47.460;18.812;2023-04-24T01:51:19;99342.75;;;14.97;53.09
79236;BME280;69062;47.460;18.812;2023-04-24T01:52:20;99338.63;;;15.04;52.89
79236;BME280;69062;47.460;18.812;2023-04-24T01:53:22;99344.44;;;15.09;53.16
79236;BME280;69062;47.460;18.812;2023-04-24T01:54:23;99339.09;;;15.09;53.66
79236;BME280;69062;47.460;18.812;2023-04-24T01:55:25;99328.59;;;15.07;53.25
79236;BME280;69062;47.460;18.812;2023-04-24T01:56:28;99334.53;;;15.00;54.14
79236;BME280;69062;47.460;18.812;2023-04-24T01:57:31;99326.66;;;14.98;53.67
79236;BME280;69062;47.460;18.812;2023-04-24T01:58:32;99330.78;;;15.02;54.34
79236;BME280;69062;47.460;18.812;2023-04-24T01:59:34;99329.44;;;15.08;54.26
79236;BME280;69062;47.460;18.812;2023-04-24T02:00:37;99325.53;;;15.12;54.01
79236;BME280;69062;47.460;18.812;2023-04-24T02:01:38;99335.75;;;15.07;53.60
79236;BME280;69062;47.460;18.812;2023-04-24T02:02:41;99331.88;;;15.00;53.98
79236;BME280;69062;47.460;18.812;2023-04-24T02:03:42;99325.38;;;14.93;54.35
79236;BME280;69062;47.460;18.812;2023-04-24T02:04:43;99319.94;;;14.83;54.51
79236;BME280;69062;47.460;18.812;2023-04-24T02:05:45;99323.06;;;14.88;54.32
79236;BME280;69062;47.460;18.812;2023-04-24T02:06:46;99320.41;;;14.88;54.27
79236;BME280;69062;47.460;18.812;2023-04-24T02:07:48;99330.22;;;14.87;54.34
79236;BME280;69062;47.460;18.812;2023-04-24T02:08:49;99314.84;;;14.91;54.25
79236;BME280;69062;47.460;18.812;2023-04-24T02:09:50;99306.28;;;14.87;54.38
79236;BME280;69062;47.460;18.812;2023-04-24T02:10:52;99313.66;;;14.84;54.65
79236;BME280;69062;47.460;18.812;2023-04-24T02:11:53;99318.59;;;14.77;55.38
79236;BME280;69062;47.460;18.812;2023-04-24T02:12:55;99319.59;;;14.76;54.63
79236;BME280;69062;47.460;18.812;2023-04-24T02:13:59;99321.16;;;14.79;54.95
79236;BME280;69062;47.460;18.812;2023-04-24T02:15:00;99315.94;;;14.77;55.60
79236;BME280;69062;47.460;18.812;2023-04-24T02:16:02;99320.31;;;14.78;54.80
79236;BME280;69062;47.460;18.812;2023-04-24T02:17:04;99315.63;;;14.59;55.71
79236;BME280;69062;47.460;18.812;2023-04-24T02:18:06;99314.16;;;14.55;56.10
79236;BME280;69062;47.460;18.812;2023-04-24T02:19:08;99315.03;;;14.56;56.19
79236;BME280;69062;47.460;18.812;2023-04-24T02:20:09;99319.47;;;14.67;55.75
79236;BME280;69062;47.460;18.812;2023-04-24T02:21:13;99318.38;;;14.69;55.63
79236;BME280;69062;47.460;18.812;2023-04-24T02:22:14;99328.44;;;14.66;55.77
79236;BME280;69062;47.460;18.812;2023-04-24T02:23:16;99319.34;;;14.68;55.67
79236;BME280;69062;47.460;18.812;2023-04-24T02:24:17;99322.13;;;14.67;55.41
79236;BME280;69062;47.460;18.812;2023-04-24T02:25:18;99321.03;;;14.69;55.60
79236;BME280;69062;47.460;18.812;2023-04-24T02:26:21;99318.03;;;14.74;55.36
79236;BME280;69062;47.460;18.812;2023-04-24T02:27:22;99318.28;;;14.71;55.80
79236;BME280;69062;47.460;18.812;2023-04-24T02:28:24;99317.31;;;14.72;56.21
79236;BME280;69062;47.460;18.812;2023-04-24T02:29:25;99316.09;;;14.76;55.79
79236;BME280;69062;47.460;18.812;2023-04-24T02:30:27;99315.59;;;14.82;56.71
79236;BME280;69062;47.460;18.812;2023-04-24T02:31:28;99320.06;;;14.81;56.29
79236;BME280;69062;47.460;18.812;2023-04-24T02:32:29;99310.19;;;14.72;56.37
79236;BME280;69062;47.460;18.812;2023-04-24T02:33:31;99318.03;;;14.74;56.86
79236;BME280;69062;47.460;18.812;2023-04-24T02:34:33;99314.16;;;14.55;56.96
79236;BME280;69062;47.460;18.812;2023-04-24T02:35:34;99317.69;;;14.56;57.03
79236;BME280;69062;47.460;18.812;2023-04-24T02:36:36;99309.22;;;14.51;57.43
79236;BME280;69062;47.460;18.812;2023-04-24T02:37:37;99316.59;;;14.47;57.44
79236;BME280;69062;47.460;18.812;2023-04-24T02:38:39;99309.44;;;14.37;58.08
79236;BME280;69062;47.460;18.812;2023-04-24T02:39:40;99315.09;;;14.32;57.68
79236;BME280;69062;47.460;18.812;2023-04-24T02:40:41;99316.56;;;14.36;57.72
79236;BME280;69062;47.460;18.812;2023-04-24T02:41:45;99312.09;;;14.25;57.54
79236;BME280;69062;47.460;18.812;2023-04-24T02:42:46;99305.09;;;14.13;58.77
79236;BME280;69062;47.460;18.812;2023-04-24T02:43:47;99308.59;;;14.14;58.68
79236;BME280;69062;47.460;18.812;2023-04-24T02:44:49;99302.66;;;14.10;58.81
79236;BME280;69062;47.460;18.812;2023-04-24T02:45:52;99307.38;;;14.18;58.77
79236;BME280;69062;47.460;18.812;2023-04-24T02:46:53;99295.19;;;14.15;58.75
79236;BME280;69062;47.460;18.812;2023-04-24T02:47:55;99299.53;;;14.16;58.98
79236;BME280;69062;47.460;18.812;2023-04-24T02:48:57;99306.91;;;14.13;58.74
79236;BME280;69062;47.460;18.812;2023-04-24T02:49:58;99304.97;;;14.15;58.50
79236;BME280;69062;47.460;18.812;2023-04-24T02:51:00;99304.72;;;14.18;59.34
79236;BME280;69062;47.460;18.812;2023-04-24T02:52:01;99297.97;;;14.14;59.41
79236;BME280;69062;47.460;18.812;2023-04-24T02:53:03;99301.22;;;14.17;59.52
79236;BME280;69062;47.460;18.812;2023-04-24T02:54:04;99298.22;;;14.22;59.05
79236;BME280;69062;47.460;18.812;2023-04-24T02:55:06;99295.56;;;14.22;58.74
79236;BME280;69062;47.460;18.812;2023-04-24T02:56:09;99301.38;;;14.27;58.93
79236;BME280;69062;47.460;18.812;2023-04-24T02:57:13;99295.66;;;14.09;59.67
79236;BME280;69062;47.460;18.812;2023-04-24T02:58:17;99289.03;;;14.15;59.25
79236;BME280;69062;47.460;18.812;2023-04-24T02:59:18;99287.34;;;14.14;59.20
79236;BME280;69062;47.460;18.812;2023-04-24T03:00:20;99296.16;;;14.25;58.60
79236;BME280;69062;47.460;18.812;2023-04-24T03:01:21;99290.38;;;14.31;58.77
79236;BME280;69062;47.460;18.812;2023-04-24T03:02:23;99290.38;;;14.31;59.01
79236;BME280;69062;47.460;18.812;2023-04-24T03:03:24;99287.22;;;14.15;59.52
79236;BME280;69062;47.460;18.812;2023-04-24T03:04:26;99293.25;;;14.17;59.40
79236;BME280;69062;47.460;18.812;2023-04-24T03:05:28;99282.28;;;14.22;59.34
79236;BME280;69062;47.460;18.812;2023-04-24T03:06:29;99284.31;;;14.18;58.71
79236;BME280;69062;47.460;18.812;2023-04-24T03:07:32;99282.88;;;14.25;59.39
79236;BME280;69062;47.460;18.812;2023-04-24T03:08:34;99279.25;;;14.26;59.07
79236;BME280;69062;47.460;18.812;2023-04-24T03:09:36;99277.91;;;14.32;58.67
79236;BME280;69062;47.460;18.812;2023-04-24T03:10:37;99284.56;;;14.38;58.24
79236;BME280;69062;47.460;18.812;2023-04-24T03:11:39;99286.88;;;14.31;59.03
79236;BME280;69062;47.460;18.812;2023-04-24T03:12:43;99284.91;;;14.33;58.58
79236;BME280;69062;47.460;18.812;2023-04-24T03:13:44;99286.88;;;14.20;58.67
79236;BME280;69062;47.460;18.812;2023-04-24T03:14:45;99291.94;;;14.23;58.88
79236;BME280;69062;47.460;18.812;2023-04-24T03:15:47;99286.50;;;14.24;58.64
79236;BME280;69062;47.460;18.812;2023-04-24T03:16:49;99288.31;;;14.24;59.14
79236;BME280;69062;47.460;18.812;2023-04-24T03:17:51;99283.00;;;14.24;59.00
79236;BME280;69062;47.460;18.812;2023-04-24T03:18:53;99292.16;;;14.31;58.82
79236;BME280;69062;47.460;18.812;2023-04-24T03:19:55;99286.50;;;14.24;58.33
79236;BME280;69062;47.460;18.812;2023-04-24T03:20:56;99290.38;;;14.20;58.86
79236;BME280;69062;47.460;18.812;2023-04-24T03:21:58;99282.41;;;14.20;59.20
79236;BME280;69062;47.460;18.812;2023-04-24T03:22:59;99286.97;;;14.18;59.56
79236;BME280;69062;47.460;18.812;2023-04-24T03:24:01;99275.88;;;14.13;58.78
79236;BME280;69062;47.460;18.812;2023-04-24T03:25:03;99275.03;;;14.13;59.19
79236;BME280;69062;47.460;18.812;2023-04-24T03:26:06;99281.19;;;14.13;59.25
79236;BME280;69062;47.460;18.812;2023-04-24T03:27:09;99277.78;;;14.11;58.70
79236;BME280;69062;47.460;18.812;2023-04-24T03:28:31;99275.63;;;14.16;58.86
79236;BME280;69062;47.460;18.812;2023-04-24T03:29:35;99278.03;;;14.19;58.25
79236;BME280;69062;47.460;18.812;2023-04-24T03:30:37;99277.81;;;14.22;58.37
79236;BME280;69062;47.460;18.812;2023-04-24T03:31:39;99271.28;;;14.26;58.38
79236;BME280;69062;47.460;18.812;2023-04-24T03:32:41;99274.69;;;14.28;58.15
79236;BME280;69062;47.460;18.812;2023-04-24T03:33:44;99272.63;;;14.32;57.37
79236;BME280;69062;47.460;18.812;2023-04-24T03:34:47;99263.94;;;14.30;56.55
79236;BME280;69062;47.460;18.812;2023-04-24T03:35:49;99267.69;;;14.27;56.44
79236;BME280;69062;47.460;18.812;2023-04-24T03:36:51;99263.56;;;14.34;56.22
79236;BME280;69062;47.460;18.812;2023-04-24T03:37:53;99262.47;;;14.37;55.99
79236;BME280;69062;47.460;18.812;2023-04-24T03:39:18;99268.75;;;14.47;56.71
79236;BME280;69062;47.460;18.812;2023-04-24T03:40:28;99264.91;;;14.51;57.85
79236;BME280;69062;47.460;18.812;2023-04-24T03:41:32;99269.50;;;14.49;58.98
79236;BME280;69062;47.460;18.812;2023-04-24T03:42:45;99265.25;;;14.47;57.54
79236;BME280;69062;47.460;18.812;2023-04-24T03:43:47;99266.72;;;14.51;58.48
79236;BME280;69062;47.460;18.812;2023-04-24T03:44:48;99257.53;;;14.44;58.59
79236;BME280;69062;47.460;18.812;2023-04-24T03:45:49;99257.38;;;14.45;59.67
79236;BME280;69062;47.460;18.812;2023-04-24T03:46:52;99249.78;;;14.41;58.48
79236;BME280;69062;47.460;18.812;2023-04-24T03:47:56;99257.03;;;14.39;58.04
79236;BME280;69062;47.460;18.812;2023-04-24T03:48:57;99249.69;;;14.42;58.48
79236;BME280;69062;47.460;18.812;2023-04-24T03:50:03;99247.88;;;14.43;59.23
79236;BME280;69062;47.460;18.812;2023-04-24T03:51:06;99250.38;;;14.44;58.56
79236;BME280;69062;47.460;18.812;2023-04-24T03:52:09;99253.88;;;14.45;59.56
79236;BME280;69062;47.460;18.812;2023-04-24T03:53:11;99254.63;;;14.47;58.64
79236;BME280;69062;47.460;18.812;2023-04-24T03:54:15;99256.31;;;14.48;58.77
79236;BME280;69062;47.460;18.812;2023-04-24T03:55:17;99250.06;;;14.49;59.89
79236;BME280;69062;47.460;18.812;2023-04-24T03:56:21;99256.69;;;14.43;58.70
79236;BME280;69062;47.460;18.812;2023-04-24T03:57:23;99261.25;;;14.41;58.71
79236;BME280;69062;47.460;18.812;2023-04-24T03:58:44;99266.31;;;14.33;57.94
79236;BME280;69062;47.460;18.812;2023-04-24T03:59:46;99263.44;;;14.36;58.79
79236;BME280;69062;47.460;18.812;2023-04-24T04:00:52;99261.63;;;14.37;59.10
79236;BME280;69062;47.460;18.812;2023-04-24T04:02:13;99256.94;;;14.29;58.67
79236;BME280;69062;47.460;18.812;2023-04-24T04:03:15;99256.22;;;14.27;59.40
79236;BME280;69062;47.460;18.812;2023-04-24T04:04:17;99259.94;;;14.35;59.97
79236;BME280;69062;47.460;18.812;2023-04-24T04:05:20;99263.91;;;14.41;61.36
79236;BME280;69062;47.460;18.812;2023-04-24T04:06:21;99268.88;;;14.34;59.49
79236;BME280;69062;47.460;18.812;2023-04-24T04:07:23;99262.97;;;14.31;60.76
79236;BME280;69062;47.460;18.812;2023-04-24T04:08:25;99265.63;;;14.31;60.36
79236;BME280;69062;47.460;18.812;2023-04-24T04:09:27;99273.84;;;14.28;60.11
79236;BME280;69062;47.460;18.812;2023-04-24T04:10:28;99270.06;;;14.19;60.17
79236;BME280;69062;47.460;18.812;2023-04-24T04:11:30;99265.63;;;14.08;60.04
79236;BME280;69062;47.460;18.812;2023-04-24T04:12:31;99275.28;;;13.98;60.50
79236;BME280;69062;47.460;18.812;2023-04-24T04:13:33;99279.75;;;13.98;60.75
79236;BME280;69062;47.460;18.812;2023-04-24T04:14:34;99284.31;;;13.96;61.09
79236;BME280;69062;47.460;18.812;2023-04-24T04:15:37;99281.19;;;13.91;60.50
79236;BME280;69062;47.460;18.812;2023-04-24T04:16:38;99280.94;;;13.94;60.50
79236;BME280;69062;47.460;18.812;2023-04-24T04:17:40;99285.28;;;13.95;60.26
79236;BME280;69062;47.460;18.812;2023-04-24T04:18:43;99283.84;;;14.02;59.89
79236;BME280;69062;47.460;18.812;2023-04-24T04:19:45;99288.06;;;14.04;60.21
79236;BME280;69062;47.460;18.812;2023-04-24T04:20:46;99286.50;;;14.02;60.29
79236;BME280;69062;47.460;18.812;2023-04-24T04:21:49;99279.25;;;14.04;60.07
79236;BME280;69062;47.460;18.812;2023-04-24T04:23:07;99283.59;;;14.05;60.81
79236;BME280;69062;47.460;18.812;2023-04-24T04:24:29;99271.91;;;14.07;59.95
79236;BME280;69062;47.460;18.812;2023-04-24T04:25:33;99265.63;;;14.08;60.98
79236;BME280;69062;47.460;18.812;2023-04-24T04:26:34;99262.25;;;14.06;60.18
79236;BME280;69062;47.460;18.812;2023-04-24T04:27:42;99264.03;;;14.17;60.26
79236;BME280;69062;47.460;18.812;2023-04-24T04:28:45;99261.78;;;14.13;59.72
79236;BME280;69062;47.460;18.812;2023-04-24T04:29:49;99259.13;;;14.13;59.69
79236;BME280;69062;47.460;18.812;2023-04-24T04:30:51;99267.53;;;14.18;59.23
79236;BME280;69062;47.460;18.812;2023-04-24T04:31:55;99261.25;;;14.19;59.60
79236;BME280;69062;47.460;18.812;2023-04-24T04:32:57;99263.06;;;14.18;59.81
79236;BME280;69062;47.460;18.812;2023-04-24T04:33:59;99269.84;;;14.22;59.69
79236;BME280;69062;47.460;18.812;2023-04-24T04:35:01;99271.06;;;14.29;60.44
79236;BME280;69062;47.460;18.812;2023-04-24T04:36:08;99267.44;;;14.30;58.75
79236;BME280;69062;47.460;18.812;2023-04-24T04:37:14;99267.16;;;14.33;59.10
79236;BME280;69062;47.460;18.812;2023-04-24T04:38:38;99258.84;;;14.38;58.52
79236;BME280;69062;47.460;18.812;2023-04-24T04:40:20;99259.09;;;14.35;58.34
79236;BME280;69062;47.460;18.812;2023-04-24T04:41:26;99257.06;;;14.27;58.27
79236;BME280;69062;47.460;18.812;2023-04-24T04:42:28;99263.31;;;14.38;58.13
79236;BME280;69062;47.460;18.812;2023-04-24T04:43:29;99265.63;;;14.31;58.28
79236;BME280;69062;47.460;18.812;2023-04-24T04:44:32;99265.97;;;14.26;59.05
79236;BME280;69062;47.460;18.812;2023-04-24T04:45:35;99263.44;;;14.25;58.49
79236;BME280;69062;47.460;18.812;2023-04-24T04:46:54;99271.78;;;14.31;58.55
79236;BME280;69062;47.460;18.812;2023-04-24T04:48:12;99269.13;;;14.31;58.45
79236;BME280;69062;47.460;18.812;2023-04-24T04:49:15;99268.88;;;14.34;58.01
79236;BME280;69062;47.460;18.812;2023-04-24T04:50:18;99266.94;;;14.37;58.47
79236;BME280;69062;47.460;18.812;2023-04-24T04:51:22;99269.72;;;14.35;58.92
79236;BME280;69062;47.460;18.812;2023-04-24T04:52:24;99270.78;;;14.32;58.89
79236;BME280;69062;47.460;18.812;2023-04-24T04:53:35;99269.72;;;14.35;58.70
79236;BME280;69062;47.460;18.812;2023-04-24T04:54:37;99261.84;;;14.33;59.51
79236;BME280;69062;47.460;18.812;2023-04-24T04:55:38;99271.19;;;14.28;59.12
79236;BME280;69062;47.460;18.812;2023-04-24T04:56:46;99272.50;;;14.22;59.80
79236;BME280;69062;47.460;18.812;2023-04-24T04:57:47;99265.03;;;14.27;59.62
79236;BME280;69062;47.460;18.812;2023-04-24T04:59:04;99262.97;;;14.31;59.54
79236;BME280;69062;47.460;18.812;2023-04-24T05:00:08;99262.72;;;14.23;60.57
79236;BME280;69062;47.460;18.812;2023-04-24T05:01:20;99263.81;;;14.31;59.84
79236;BME280;69062;47.460;18.812;2023-04-24T05:02:38;99257.91;;;14.28;59.66
79236;BME280;69062;47.460;18.812;2023-04-24T05:03:39;99254.50;;;14.37;60.16
79236;BME280;69062;47.460;18.812;2023-04-24T05:04:45;99257.16;;;14.26;59.98
79236;BME280;69062;47.460;18.812;2023-04-24T05:05:46;99253.56;;;14.27;60.40
79236;BME280;69062;47.460;18.812;2023-04-24T05:06:50;99256.81;;;14.30;60.22
79236;BME280;69062;47.460;18.812;2023-04-24T05:08:10;99254.84;;;14.32;59.44
79236;BME280;69062;47.460;18.812;2023-04-24T05:09:27;99257.41;;;14.34;59.78
79236;BME280;69062;47.460;18.812;2023-04-24T05:10:36;99258.63;;;14.30;59.74
79236;BME280;69062;47.460;18.812;2023-04-24T05:11:38;99257.16;;;14.26;59.59
79236;BME280;69062;47.460;18.812;2023-04-24T05:12:40;99261.84;;;14.33;59.38
79236;BME280;69062;47.460;18.812;2023-04-24T05:13:42;99262.38;;;14.27;59.71
79236;BME280;69062;47.460;18.812;2023-04-24T05:14:48;99263.31;;;14.26;60.40
79236;BME280;69062;47.460;18.812;2023-04-24T05:15:50;99264.41;;;14.24;61.24
79236;BME280;69062;47.460;18.812;2023-04-24T05:16:51;99257.66;;;14.31;60.85
79236;BME280;69062;47.460;18.812;2023-04-24T05:17:55;99264.28;;;14.25;61.72
79236;BME280;69062;47.460;18.812;2023-04-24T05:18:57;99267.16;;;14.33;62.06
79236;BME280;69062;47.460;18.812;2023-04-24T05:20:04;99266.22;;;14.23;61.49
79236;BME280;69062;47.460;18.812;2023-04-24T05:21:10;99266.69;;;14.17;61.40
79236;BME280;69062;47.460;18.812;2023-04-24T05:22:14;99267.19;;;14.22;61.99
79236;BME280;69062;47.460;18.812;2023-04-24T05:23:22;99262.22;;;14.18;61.53
79236;BME280;69062;47.460;18.812;2023-04-24T05:24:27;99266.47;;;14.20;60.47
79236;BME280;69062;47.460;18.812;2023-04-24T05:25:44;99264.41;;;14.24;60.32
79236;BME280;69062;47.460;18.812;2023-04-24T05:26:48;99268.41;;;14.29;60.31
79236;BME280;69062;47.460;18.812;2023-04-24T05:27:53;99269.81;;;14.33;60.48
79236;BME280;69062;47.460;18.812;2023-04-24T05:28:55;99265.38;;;14.34;60.81
79236;BME280;69062;47.460;18.812;2023-04-24T05:29:57;99269.22;;;14.41;60.47
79236;BME280;69062;47.460;18.812;2023-04-24T05:30:58;99266.56;;;14.41;60.77